Time;durP1;ratioP1;P1;durP2;ratioP2;P2;SDS_P1;SDS_P2;PMS_P1;PMS_P2;Temp;Humidity;BMP_temperature;BMP_pressure;BME280_temperature;BME280_humidity;BME280_pressure;Samples;Min_cycle;Max_cycle;Signal;HPM_P1;HPM_P2
2023/01/16 00:00:54;;;;;;;13.55;4.70;;;13.70;99.90;;;;;;5052307;28;20107;-70
2023/01/16 00:03:58;;;;;;;18.17;4.65;;;13.70;99.90;;;;;;5052898;28;20056;-70
2023/01/16 00:07:02;;;;;;;11.52;3.95;;;13.70;99.90;;;;;;5052396;28;20044;-70
2023/01/16 00:10:07;;;;;;;12.60;3.88;;;13.70;99.90;;;;;;5052413;28;20048;-70
2023/01/16 00:13:12;;;;;;;17.98;4.60;;;13.70;99.90;;;;;;5051958;28;20036;-70
2023/01/16 00:16:18;;;;;;;21.33;4.43;;;13.80;99.90;;;;;;5052231;28;20040;-70
2023/01/16 00:19:22;;;;;;;16.83;4.38;;;13.80;99.90;;;;;;5052304;28;20044;-71
2023/01/16 00:22:26;;;;;;;17.73;4.30;;;13.70;99.90;;;;;;5039808;28;20044;-72
2023/01/16 00:25:30;;;;;;;18.63;4.00;;;13.80;99.90;;;;;;5051918;28;20051;-71
2023/01/16 00:28:37;;;;;;;11.93;4.07;;;13.80;99.90;;;;;;5050885;28;20056;-70
2023/01/16 00:31:41;;;;;;;10.48;3.65;;;13.80;99.90;;;;;;5052011;28;20052;-70
2023/01/16 00:34:45;;;;;;;17.85;4.47;;;13.80;99.90;;;;;;5051751;28;20044;-70
2023/01/16 00:37:48;;;;;;;17.63;3.40;;;13.80;99.90;;;;;;5051667;28;20052;-71
2023/01/16 00:40:52;;;;;;;11.73;3.58;;;13.80;99.90;;;;;;5051544;28;20048;-70
2023/01/16 00:43:58;;;;;;;16.35;3.42;;;13.80;99.90;;;;;;5051664;28;20060;-70
2023/01/16 00:47:04;;;;;;;14.10;3.53;;;13.80;99.90;;;;;;5050823;28;20044;-71
2023/01/16 00:50:08;;;;;;;12.85;3.88;;;13.80;99.90;;;;;;5051524;28;20048;-72
2023/01/16 00:53:12;;;;;;;10.63;3.17;;;13.70;99.90;;;;;;5051421;28;20495;-70
2023/01/16 00:56:16;;;;;;;12.38;3.45;;;13.80;99.90;;;;;;5051628;28;20048;-71
2023/01/16 00:59:20;;;;;;;16.17;3.90;;;13.70;99.90;;;;;;5051579;28;20079;-71
2023/01/16 01:02:24;;;;;;;12.13;3.53;;;13.80;99.90;;;;;;5051241;28;20040;-70
2023/01/16 01:05:28;;;;;;;14.95;2.65;;;13.70;99.90;;;;;;5050217;28;20052;-72
2023/01/16 01:08:32;;;;;;;10.50;3.58;;;13.90;99.90;;;;;;5050762;28;20515;-71
2023/01/16 01:11:36;;;;;;;14.70;3.28;;;14.00;99.90;;;;;;5051124;28;20047;-72
2023/01/16 01:14:40;;;;;;;30.10;4.85;;;13.80;99.90;;;;;;5051195;28;20392;-71
2023/01/16 01:17:44;;;;;;;15.15;3.75;;;13.80;99.90;;;;;;5050773;28;20052;-72
2023/01/16 01:20:48;;;;;;;16.25;4.72;;;13.80;99.90;;;;;;5051530;28;20052;-71
2023/01/16 01:23:54;;;;;;;13.43;4.05;;;13.80;99.90;;;;;;5050108;28;20048;-71
2023/01/16 01:26:59;;;;;;;12.63;3.90;;;13.80;99.90;;;;;;5050953;28;20040;-71
2023/01/16 01:30:03;;;;;;;18.60;3.63;;;13.90;99.90;;;;;;5051181;28;20047;-69
2023/01/16 01:33:09;;;;;;;11.38;3.25;;;13.90;99.90;;;;;;5049736;28;20036;-71
2023/01/16 01:36:13;;;;;;;21.67;4.22;;;13.90;99.90;;;;;;5049865;28;20052;-71
2023/01/16 01:39:17;;;;;;;14.93;3.67;;;13.90;99.90;;;;;;5050759;28;20040;-70
2023/01/16 01:45:54;;;;;;;11.95;3.55;;;13.90;99.90;;;;;;5050124;28;20079;-70
2023/01/16 01:49:04;;;;;;;16.45;3.70;;;13.80;99.90;;;;;;5051082;28;20059;-70
2023/01/16 01:52:10;;;;;;;20.55;3.63;;;13.90;99.90;;;;;;5050626;28;20047;-70
2023/01/16 01:55:14;;;;;;;12.77;3.65;;;13.90;99.90;;;;;;5050705;28;20052;-70
2023/01/16 01:58:22;;;;;;;13.43;3.67;;;13.90;99.90;;;;;;5050490;28;20095;-71
2023/01/16 02:01:30;;;;;;;16.35;3.85;;;13.90;99.90;;;;;;5050644;28;20040;-71
2023/01/16 02:04:37;;;;;;;21.70;5.40;;;13.90;99.90;;;;;;5050659;28;20044;-70
2023/01/16 02:07:41;;;;;;;17.77;4.20;;;13.90;99.90;;;;;;5050486;28;20044;-70
2023/01/16 02:11:00;;;;;;;18.88;4.55;;;14.00;99.90;;;;;;5050637;28;20056;-70
2023/01/16 02:14:07;;;;;;;19.33;4.53;;;14.00;99.90;;;;;;5050702;28;20036;-71
2023/01/16 02:20:46;;;;;;;26.10;4.20;;;14.00;99.90;;;;;;5050159;28;20044;-71
2023/01/16 02:23:53;;;;;;;15.63;4.15;;;14.10;99.90;;;;;;5050344;28;20052;-70
2023/01/16 02:27:35;;;;;;;13.40;3.85;;;14.10;99.90;;;;;;5049705;28;20404;-70
2023/01/16 02:31:07;;;;;;;18.23;4.53;;;13.50;99.90;;;;;;5045644;28;20056;-70
2023/01/16 02:34:26;;;;;;;19.85;4.80;;;14.10;99.90;;;;;;5050880;28;20055;-70
2023/01/16 02:37:51;;;;;;;21.27;4.70;;;14.10;99.90;;;;;;5049992;28;20112;-70
2023/01/16 02:41:14;;;;;;;11.70;4.30;;;14.10;99.90;;;;;;5050289;28;20036;-71
2023/01/16 02:44:55;;;;;;;18.40;4.40;;;14.10;99.90;;;;;;5051550;28;20036;-71
2023/01/16 02:48:19;;;;;;;17.50;3.87;;;14.00;99.90;;;;;;5053459;28;20119;-71
2023/01/16 02:51:44;;;;;;;15.60;4.80;;;14.10;99.90;;;;;;5048256;28;20040;-70
2023/01/16 02:55:04;;;;;;;21.15;5.75;;;14.10;99.90;;;;;;5052864;28;20369;-70
2023/01/16 02:58:11;;;;;;;20.08;5.05;;;14.00;99.90;;;;;;5053748;28;20519;-72
2023/01/16 03:01:18;;;;;;;24.77;6.00;;;14.00;99.90;;;;;;5054033;28;20060;-71
2023/01/16 03:04:51;;;;;;;19.60;5.13;;;14.00;99.90;;;;;;5053546;28;20045;-71
2023/01/16 03:08:27;;;;;;;19.75;6.07;;;14.00;99.90;;;;;;5053099;28;20040;-71
2023/01/16 03:11:41;;;;;;;12.80;4.60;;;14.00;99.90;;;;;;5053588;28;20393;-71
2023/01/16 03:14:48;;;;;;;13.43;4.55;;;14.00;99.90;;;;;;5053413;28;20056;-69
2023/01/16 03:18:02;;;;;;;15.68;4.53;;;13.90;99.90;;;;;;5053591;28;20056;-71
2023/01/16 03:21:41;;;;;;;20.90;5.47;;;14.00;99.90;;;;;;5053261;28;20499;-70
2023/01/16 03:24:54;;;;;;;17.27;5.57;;;13.90;99.90;;;;;;5053357;28;20052;-71
2023/01/16 03:28:17;;;;;;;13.75;4.93;;;14.00;99.90;;;;;;5053129;28;20511;-69
2023/01/16 03:31:28;;;;;;;16.17;4.93;;;13.90;99.90;;;;;;5053036;28;20459;-70
2023/01/16 03:34:58;;;;;;;18.40;5.13;;;13.90;99.90;;;;;;5052998;28;20396;-71
2023/01/16 03:38:05;;;;;;;13.25;4.57;;;13.90;99.90;;;;;;5051881;28;20075;-70
2023/01/16 03:41:12;;;;;;;16.85;4.85;;;13.90;99.90;;;;;;5051986;28;20063;-70
2023/01/16 03:44:25;;;;;;;15.23;4.70;;;13.90;99.90;;;;;;5051792;28;20400;-69
2023/01/16 03:47:35;;;;;;;20.23;4.93;;;13.90;99.90;;;;;;5052833;28;20607;-70
2023/01/16 03:50:44;;;;;;;23.20;4.80;;;13.90;99.90;;;;;;5051829;28;20033;-71
2023/01/16 03:54:10;;;;;;;18.73;4.78;;;14.00;99.90;;;;;;5052647;28;20048;-71
2023/01/16 03:57:38;;;;;;;15.77;4.93;;;13.90;99.90;;;;;;5052181;28;20056;-70
2023/01/16 04:00:53;;;;;;;18.17;5.20;;;14.00;99.90;;;;;;5053289;28;20659;-71
2023/01/16 04:04:30;;;;;;;15.70;4.90;;;13.90;99.90;;;;;;5052370;28;20171;-70
2023/01/16 04:07:44;;;;;;;28.63;4.95;;;14.00;99.90;;;;;;5046143;28;20048;-70
2023/01/16 04:10:49;;;;;;;12.02;5.15;;;13.90;99.90;;;;;;5051699;28;20052;-70
2023/01/16 04:13:58;;;;;;;18.10;5.05;;;14.00;99.90;;;;;;5052314;28;20118;-71
2023/01/16 04:17:04;;;;;;;15.75;5.13;;;14.00;99.90;;;;;;5052087;28;20048;-70
2023/01/16 04:20:13;;;;;;;19.08;5.68;;;14.00;99.90;;;;;;5051672;28;20412;-70
2023/01/16 04:23:17;;;;;;;13.77;4.70;;;14.00;99.90;;;;;;5052487;28;20128;-71
2023/01/16 04:26:21;;;;;;;24.20;4.90;;;14.00;99.90;;;;;;5051156;28;20060;-71
2023/01/16 04:29:25;;;;;;;20.67;4.95;;;14.00;99.90;;;;;;5051301;28;20044;-71
2023/01/16 04:32:29;;;;;;;19.33;5.13;;;14.00;99.90;;;;;;5052213;28;20120;-70
2023/01/16 04:35:37;;;;;;;17.10;4.68;;;14.10;99.90;;;;;;5052161;28;20036;-71
2023/01/16 04:38:42;;;;;;;19.63;4.85;;;14.00;99.90;;;;;;5051751;28;20055;-71
2023/01/16 04:41:50;;;;;;;14.80;4.70;;;15.60;99.90;;;;;;5051426;28;20071;-71
2023/01/16 04:44:55;;;;;;;15.60;5.82;;;14.00;99.90;;;;;;5051508;28;20048;-71
2023/01/16 04:47:59;;;;;;;13.93;4.75;;;14.20;99.90;;;;;;5050648;28;20405;-70
2023/01/16 04:51:03;;;;;;;16.58;5.05;;;14.10;99.90;;;;;;5050476;28;20048;-71
2023/01/16 04:54:12;;;;;;;12.98;4.65;;;14.10;99.90;;;;;;5051496;28;20499;-70
2023/01/16 04:57:16;;;;;;;17.73;4.47;;;13.40;99.90;;;;;;5050407;28;20408;-70
2023/01/16 05:00:20;;;;;;;11.98;4.88;;;14.30;99.90;;;;;;5051697;28;20056;-71
2023/01/16 05:03:24;;;;;;;22.05;5.68;;;14.10;99.90;;;;;;5051198;28;20377;-70
2023/01/16 05:06:28;;;;;;;19.38;5.05;;;14.10;99.90;;;;;;5050886;28;20048;-71
2023/01/16 05:09:32;;;;;;;14.50;4.60;;;14.10;99.90;;;;;;5050979;28;20056;-71
2023/01/16 05:12:36;;;;;;;14.82;5.10;;;14.10;99.90;;;;;;5050342;28;20531;-70
2023/01/16 05:15:43;;;;;;;16.08;4.43;;;14.10;99.90;;;;;;5051215;28;20044;-70
2023/01/16 05:18:47;;;;;;;10.18;4.35;;;14.10;99.90;;;;;;5051126;28;20504;-71
2023/01/16 05:21:51;;;;;;;14.07;4.13;;;14.00;99.90;;;;;;5050758;28;20040;-70
2023/01/16 05:24:55;;;;;;;14.75;4.20;;;14.00;99.90;;;;;;5050974;28;20127;-71
2023/01/16 05:27:59;;;;;;;16.30;4.57;;;14.00;99.90;;;;;;5050665;28;20044;-70
2023/01/16 05:31:06;;;;;;;13.43;5.32;;;14.20;99.90;;;;;;5050805;28;20040;-71
2023/01/16 05:34:10;;;;;;;19.00;5.13;;;14.00;99.90;;;;;;5050491;28;20044;-70
2023/01/16 05:37:14;;;;;;;12.68;4.38;;;14.00;99.90;;;;;;5050818;28;20036;-70
2023/01/16 05:40:18;;;;;;;14.48;4.97;;;14.00;99.90;;;;;;5050848;28;20048;-71
2023/01/16 05:43:22;;;;;;;21.70;5.57;;;14.00;99.90;;;;;;5050585;28;20099;-70
2023/01/16 05:46:26;;;;;;;20.98;5.13;;;14.00;99.90;;;;;;5050604;28;20060;-71
2023/01/16 05:49:30;;;;;;;12.25;4.72;;;14.10;99.90;;;;;;5050301;28;20044;-70
2023/01/16 05:52:34;;;;;;;16.50;5.88;;;14.00;99.90;;;;;;5050593;28;20048;-70
2023/01/16 05:55:46;;;;;;;21.25;5.93;;;14.00;99.90;;;;;;5050722;28;20072;-69
2023/01/16 05:58:50;;;;;;;15.23;5.55;;;14.10;99.90;;;;;;5050522;28;20065;-70
2023/01/16 06:01:57;;;;;;;19.15;6.40;;;14.10;99.90;;;;;;5050716;28;20036;-69
2023/01/16 06:05:02;;;;;;;26.75;7.20;;;14.00;99.90;;;;;;5050797;28;20060;-70
2023/01/16 06:08:06;;;;;;;12.52;5.45;;;14.00;99.90;;;;;;5050495;28;20408;-69
2023/01/16 06:11:10;;;;;;;22.50;6.82;;;14.10;99.90;;;;;;5049933;28;20052;-70
2023/01/16 06:14:14;;;;;;;23.60;6.40;;;14.00;99.90;;;;;;5050522;28;20044;-71
2023/01/16 06:17:19;;;;;;;19.92;7.35;;;14.00;99.90;;;;;;5049904;28;20503;-70
2023/01/16 06:20:25;;;;;;;13.13;6.10;;;14.00;99.90;;;;;;5053956;28;20052;-71
2023/01/16 06:23:30;;;;;;;16.50;5.93;;;13.90;99.90;;;;;;5055080;28;20036;-69
2023/01/16 06:26:34;;;;;;;22.17;6.60;;;13.90;99.90;;;;;;5055270;28;20048;-70
2023/01/16 06:29:41;;;;;;;14.95;6.05;;;14.00;99.90;;;;;;5054875;28;20123;-69
2023/01/16 06:32:49;;;;;;;9.82;5.22;;;14.00;99.90;;;;;;5055315;28;20068;-69
2023/01/16 06:35:54;;;;;;;18.40;6.97;;;14.00;99.90;;;;;;5055240;28;20052;-74
2023/01/16 06:38:58;;;;;;;12.82;6.93;;;14.00;99.90;;;;;;5055907;28;20055;-73
2023/01/16 06:42:04;;;;;;;14.07;6.78;;;14.00;99.90;;;;;;5055089;28;20048;-72
2023/01/16 06:45:09;;;;;;;17.42;6.30;;;14.00;99.90;;;;;;5054650;28;20048;-72
2023/01/16 06:48:13;;;;;;;14.23;6.60;;;14.00;99.90;;;;;;5054488;28;20495;-74
2023/01/16 06:51:17;;;;;;;18.90;6.93;;;14.00;99.90;;;;;;5055514;28;20036;-72
2023/01/16 06:54:21;;;;;;;19.45;6.63;;;14.00;99.90;;;;;;5054463;28;20036;-74
2023/01/16 06:57:25;;;;;;;24.50;6.82;;;14.10;99.90;;;;;;5053681;28;20064;-72
2023/01/16 07:00:29;;;;;;;30.05;8.25;;;14.10;99.90;;;;;;5055459;28;20059;-72
2023/01/16 07:03:33;;;;;;;17.23;6.88;;;13.90;99.90;;;;;;5054842;28;20064;-73
2023/01/16 07:06:39;;;;;;;20.63;7.40;;;14.10;99.90;;;;;;5054589;28;20397;-73
2023/01/16 07:09:43;;;;;;;22.10;6.85;;;14.10;99.90;;;;;;5054820;28;20056;-72
2023/01/16 07:12:54;;;;;;;22.88;6.88;;;14.10;99.90;;;;;;5054618;28;20044;-73
2023/01/16 07:22:45;;;;;;;28.30;6.28;;;14.10;99.90;;;;;;5053897;28;20095;-72
2023/01/16 07:25:53;;;;;;;24.90;6.93;;;13.10;99.90;;;;;;5055453;28;20052;-73
2023/01/16 07:28:58;;;;;;;27.90;7.75;;;11.10;99.90;;;;;;5053857;28;20392;-73
2023/01/16 07:32:03;;;;;;;22.58;7.75;;;14.30;99.90;;;;;;5054342;28;20052;-73
2023/01/16 07:35:08;;;;;;;21.65;7.18;;;;;;;;;;5054283;28;20036;-73
2023/01/16 07:38:12;;;;;;;15.93;4.63;;;12.10;99.90;;;;;;5053053;28;20408;-71
2023/01/16 07:41:15;;;;;;;23.95;4.53;;;11.90;99.90;;;;;;5052977;28;20523;-73
2023/01/16 07:44:19;;;;;;;17.25;4.15;;;11.20;99.90;;;;;;5052834;28;20048;-72
2023/01/16 07:47:23;;;;;;;11.20;3.00;;;;;;;;;;5053170;28;20131;-73
2023/01/16 07:50:28;;;;;;;18.38;3.95;;;;;;;;;;5052904;28;20063;-71
2023/01/16 07:53:32;;;;;;;15.13;3.03;;;;;;;;;;5052834;28;20045;-71
2023/01/16 07:56:36;;;;;;;18.60;5.10;;;13.60;99.90;;;;;;5052755;28;20044;-71
2023/01/16 07:59:40;;;;;;;16.80;4.55;;;10.30;99.90;;;;;;5052922;28;20052;-72
2023/01/16 08:02:44;;;;;;;17.42;4.75;;;;;;;;;;5052938;28;20048;-71
2023/01/16 08:05:50;;;;;;;13.10;4.55;;;;;;;;;;5052934;28;20128;-70
2023/01/16 08:08:53;;;;;;;18.80;5.32;;;;;;;;;;5052617;28;20056;-72
2023/01/16 08:11:58;;;;;;;21.63;5.43;;;;;;;;;;5053110;28;20055;-71
2023/01/16 08:15:02;;;;;;;19.08;4.50;;;9.70;99.90;;;;;;5053371;28;20152;-74
2023/01/16 08:18:06;;;;;;;16.25;4.45;;;;;;;;;;5053742;28;20076;-71
2023/01/16 08:21:11;;;;;;;14.82;4.40;;;;;;;;;;5052979;28;20040;-73
2023/01/16 08:24:15;;;;;;;19.00;5.43;;;10.70;99.90;;;;;;5053445;28;20052;-73
2023/01/16 08:27:19;;;;;;;22.75;8.05;;;;;;;;;;5053113;28;20074;-73
2023/01/16 08:30:23;;;;;;;17.73;7.60;;;11.00;99.90;;;;;;5052913;28;20104;-71
2023/01/16 08:33:28;;;;;;;25.35;8.98;;;11.70;99.90;;;;;;5052529;28;20047;-74
2023/01/16 08:36:33;;;;;;;17.33;6.07;;;;;;;;;;5052602;28;20409;-73
2023/01/16 08:39:37;;;;;;;16.42;6.50;;;;;;;;;;5052778;28;20056;-71
2023/01/16 08:52:54;;;;;;;11.60;4.65;;;;;;;;;;5053295;28;20600;-75
2023/01/16 08:55:58;;;;;;;12.50;5.05;;;12.80;99.90;;;;;;5052856;28;20072;-76
2023/01/16 08:59:02;;;;;;;10.25;3.83;;;12.00;99.90;;;;;;5052567;28;20405;-72
2023/01/16 09:02:08;;;;;;;14.23;5.63;;;12.90;99.90;;;;;;5052856;28;20040;-75
2023/01/16 09:05:13;;;;;;;21.35;6.07;;;12.80;99.90;;;;;;5052297;28;20067;-74
2023/01/16 09:08:17;;;;;;;13.75;5.00;;;;;;;;;;5051740;28;20389;-74
2023/01/16 09:14:43;;;;;;;10.98;6.28;;;12.90;99.90;;;;;;5051247;28;20044;-74
2023/01/16 09:17:48;;;;;;;14.98;6.25;;;;;;;;;;5052784;28;20052;-74
2023/01/16 09:20:52;;;;;;;12.68;5.75;;;;;;;;;;5052961;28;20036;-74
2023/01/16 09:23:56;;;;;;;16.30;5.45;;;17.20;99.90;;;;;;5052295;28;20400;-75
2023/01/16 09:27:06;;;;;;;16.73;4.97;;;10.20;99.90;;;;;;5052641;28;20047;-75
2023/01/16 09:30:10;;;;;;;11.25;5.40;;;13.00;99.90;;;;;;5052115;28;20051;-73
2023/01/16 09:33:14;;;;;;;14.05;6.28;;;;;;;;;;5051914;28;20046;-75
2023/01/16 09:36:21;;;;;;;15.85;6.00;;;13.20;99.90;;;;;;5052105;28;20040;-75
2023/01/16 09:39:26;;;;;;;13.00;6.45;;;;;;;;;;5050501;28;20056;-75
2023/01/16 09:46:01;;;;;;;19.10;6.13;;;13.20;99.90;;;;;;5051304;28;20112;-75
2023/01/16 09:49:25;;;;;;;12.77;5.10;;;13.20;99.90;;;;;;5051055;28;20507;-74
2023/01/16 09:59:23;;;;;;;11.52;5.75;;;13.70;99.90;;;;;;5050323;28;20051;-73
2023/01/16 10:02:33;;;;;;;14.13;5.07;;;13.70;99.90;;;;;;5049821;28;20484;-75
2023/01/16 10:06:06;;;;;;;17.40;7.00;;;13.90;99.90;;;;;;5050324;28;20052;-74
2023/01/16 10:09:18;;;;;;;10.32;4.80;;;13.80;99.90;;;;;;5048888;28;20048;-74
2023/01/16 10:12:30;;;;;;;9.23;4.35;;;13.80;99.90;;;;;;5050564;28;20059;-75
2023/01/16 10:15:58;;;;;;;11.65;4.60;;;13.80;99.90;;;;;;5051345;28;20047;-74
2023/01/16 10:19:09;;;;;;;11.70;4.85;;;14.00;99.90;;;;;;5051335;28;20060;-73
2023/01/16 10:22:32;;;;;;;14.25;5.85;;;14.30;99.90;;;;;;5049269;28;20048;-73
2023/01/16 10:25:46;;;;;;;16.45;5.03;;;14.30;99.90;;;;;;5051475;28;20060;-74
2023/01/16 10:29:23;;;;;;;15.68;5.50;;;14.80;99.90;;;;;;5052277;28;20048;-74
2023/01/16 10:32:43;;;;;;;12.95;4.60;;;15.30;99.90;;;;;;5051211;28;20051;-73
2023/01/16 10:35:51;;;;;;;12.75;5.43;;;15.40;99.90;;;;;;5051713;28;20059;-74
2023/01/16 10:38:56;;;;;;;13.23;5.07;;;15.40;99.90;;;;;;5050569;28;20052;-74
2023/01/16 10:52:22;;;;;;;18.60;3.85;;;16.20;99.90;;;;;;5049599;28;20453;-73
2023/01/16 10:55:25;;;;;;;17.40;4.05;;;16.20;99.90;;;;;;5049838;28;20036;-76
2023/01/16 10:58:35;;;;;;;12.35;3.05;;;16.20;99.90;;;;;;5050178;28;20420;-74
2023/01/16 11:01:41;;;;;;;13.00;2.70;;;16.00;99.90;;;;;;5050855;28;20420;-77
2023/01/16 11:04:45;;;;;;;13.40;2.78;;;15.90;99.90;;;;;;5051244;28;20409;-72
2023/01/16 11:07:53;;;;;;;16.50;3.08;;;15.80;99.90;;;;;;5053944;28;20048;-72
2023/01/16 11:10:56;;;;;;;15.85;3.05;;;15.70;99.90;;;;;;5054075;28;20060;-71
2023/01/16 11:21:31;;;;;;;20.25;3.80;;;15.50;99.90;;;;;;5053392;28;20124;-69
2023/01/16 11:24:39;;;;;;;12.15;2.67;;;15.70;99.90;;;;;;5053352;28;20400;-72
2023/01/16 11:27:45;;;;;;;25.83;4.68;;;15.80;99.90;;;;;;5053601;28;20044;-72
2023/01/16 11:30:53;;;;;;;12.43;2.70;;;16.00;99.90;;;;;;5053483;28;20056;-71
2023/01/16 11:34:04;;;;;;;23.08;5.18;;;16.10;99.90;;;;;;5054344;28;20047;-71
2023/01/16 11:37:13;;;;;;;22.65;5.00;;;16.20;99.90;;;;;;5053728;28;20052;-72
2023/01/16 11:40:21;;;;;;;14.43;3.58;;;16.20;99.90;;;;;;5053984;28;20055;-71
2023/01/16 11:46:57;;;;;;;13.00;3.50;;;16.00;99.90;;;;;;5053788;28;20044;-73
2023/01/16 11:50:21;;;;;;;11.82;3.00;;;16.00;99.90;;;;;;5053258;28;20032;-71
2023/01/16 11:53:34;;;;;;;12.65;3.13;;;15.90;99.90;;;;;;5054774;28;20047;-74
2023/01/16 11:56:52;;;;;;;18.23;4.03;;;15.80;99.90;;;;;;5054333;28;20040;-72
2023/01/16 12:00:11;;;;;;;14.98;3.80;;;15.70;99.90;;;;;;5053876;28;20048;-74
2023/01/16 12:03:28;;;;;;;10.55;3.50;;;15.60;99.90;;;;;;5054275;28;20051;-74
2023/01/16 12:07:00;;;;;;;13.43;3.63;;;15.60;99.90;;;;;;5053180;28;20484;-75
2023/01/16 12:10:42;;;;;;;16.48;4.30;;;15.50;99.90;;;;;;5051521;28;20055;-69
2023/01/16 12:14:17;;;;;;;17.33;3.97;;;15.50;99.90;;;;;;5031150;28;20044;-74
2023/01/16 12:17:34;;;;;;;12.30;3.50;;;15.50;99.90;;;;;;5034811;28;20044;-74
2023/01/16 12:20:58;;;;;;;14.35;4.85;;;15.40;99.90;;;;;;5052070;28;20083;-75
2023/01/16 12:24:29;;;;;;;16.25;5.57;;;15.50;99.90;;;;;;5053443;28;20071;-74
2023/01/16 12:28:06;;;;;;;17.60;4.18;;;15.40;99.90;;;;;;5054117;28;20048;-74
2023/01/16 12:31:34;;;;;;;16.17;4.60;;;15.40;99.90;;;;;;5053781;28;20040;-75
2023/01/16 12:35:01;;;;;;;17.40;4.22;;;15.30;99.90;;;;;;5053559;28;20056;-73
2023/01/16 12:38:23;;;;;;;16.98;3.85;;;15.30;99.90;;;;;;5053190;28;20044;-74
2023/01/16 12:45:38;;;;;;;26.17;5.13;;;15.30;99.90;;;;;;5053411;28;20044;-73
2023/01/16 12:48:57;;;;;;;13.68;3.50;;;15.30;99.90;;;;;;5053297;28;20044;-74
2023/01/16 12:52:11;;;;;;;14.82;3.65;;;15.20;99.90;;;;;;5051637;28;20044;-73
2023/01/16 12:55:25;;;;;;;17.35;4.13;;;15.30;99.90;;;;;;5052301;28;20044;-75
2023/01/16 12:58:35;;;;;;;19.00;4.88;;;15.30;99.90;;;;;;5040284;28;20055;-74
2023/01/16 13:01:43;;;;;;;16.77;4.40;;;15.30;99.90;;;;;;5052290;28;20067;-74
2023/01/16 13:04:58;;;;;;;17.10;4.38;;;15.30;99.90;;;;;;5051623;28;20044;-73
2023/01/16 13:08:19;;;;;;;19.65;4.13;;;15.30;99.90;;;;;;5052198;28;20052;-74
2023/01/16 13:15:00;;;;;;;25.05;5.22;;;15.30;99.90;;;;;;5052290;28;20043;-75
2023/01/16 13:18:28;;;;;;;10.75;3.20;;;15.30;99.90;;;;;;5053267;28;20272;-74
2023/01/16 13:21:52;;;;;;;23.80;4.03;;;15.20;99.90;;;;;;5051457;28;20044;-76
2023/01/16 13:25:12;;;;;;;15.45;4.32;;;15.30;99.90;;;;;;5052800;28;20048;-74
2023/01/16 13:28:25;;;;;;;16.92;4.57;;;15.20;99.90;;;;;;5051901;28;20380;-74
2023/01/16 13:31:38;;;;;;;21.02;5.28;;;15.30;99.90;;;;;;5051779;28;20043;-75
2023/01/16 13:34:47;;;;;;;13.10;4.05;;;15.30;99.90;;;;;;5051914;28;20410;-74
2023/01/16 13:38:28;;;;;;;24.33;4.30;;;15.30;99.90;;;;;;5052595;28;20615;-74
2023/01/16 13:41:55;;;;;;;17.35;4.10;;;15.30;99.90;;;;;;5053124;28;20511;-74
2023/01/16 13:48:38;;;;;;;19.63;5.15;;;15.20;99.90;;;;;;5052756;28;20044;-76
2023/01/16 13:51:44;;;;;;;21.40;5.93;;;15.10;99.90;;;;;;5051201;28;20510;-74
2023/01/16 13:54:53;;;;;;;21.90;5.22;;;15.00;99.90;;;;;;5051887;28;20044;-76
2023/01/16 13:58:08;;;;;;;19.30;6.20;;;15.00;99.90;;;;;;5051670;28;20397;-74
2023/01/16 14:01:41;;;;;;;16.00;3.80;;;15.00;99.90;;;;;;5051377;28;20054;-76
2023/01/16 14:05:23;;;;;;;14.85;4.00;;;15.00;99.90;;;;;;5051796;28;20040;-74
2023/01/16 14:09:04;;;;;;;11.52;3.65;;;15.00;99.90;;;;;;5050995;28;20063;-75
2023/01/16 14:12:23;;;;;;;17.10;4.30;;;15.00;99.90;;;;;;5049879;28;20396;-75
2023/01/16 14:19:54;;;;;;;21.23;4.70;;;15.00;99.90;;;;;;5049198;28;20558;-74
2023/01/16 14:26:34;;;;;;;24.60;5.30;;;14.90;99.90;;;;;;5051539;28;20048;-74
2023/01/16 14:29:56;;;;;;;21.50;4.88;;;14.90;99.90;;;;;;5052640;28;20044;-74
2023/01/16 14:33:03;;;;;;;19.25;6.65;;;14.90;99.90;;;;;;5052155;28;20412;-74
2023/01/16 14:36:12;;;;;;;15.50;4.30;;;14.90;99.90;;;;;;5051789;28;20052;-74
2023/01/16 14:39:51;;;;;;;15.75;3.97;;;14.80;99.90;;;;;;5053079;28;20056;-74
2023/01/16 14:56:44;;;;;;;17.30;4.80;;;14.40;99.90;;;;;;5053893;28;20392;-74
2023/01/16 15:00:14;;;;;;;17.65;4.20;;;14.40;99.90;;;;;;5054516;28;20056;-73
2023/01/16 15:03:29;;;;;;;14.45;5.38;;;14.40;99.90;;;;;;5054986;28;20048;-74
2023/01/16 15:06:42;;;;;;;24.73;6.82;;;14.40;99.90;;;;;;5055581;28;20060;-75
2023/01/16 15:10:06;;;;;;;23.55;6.35;;;14.40;99.90;;;;;;5054719;28;20300;-74
2023/01/16 15:23:48;;;;;;;18.30;4.35;;;14.30;99.90;;;;;;5054032;28;20044;-77
2023/01/16 15:27:35;;;;;;;16.40;4.10;;;14.30;99.90;;;;;;5055856;28;20036;-74
2023/01/16 15:30:42;;;;;;;11.93;4.70;;;14.20;99.90;;;;;;5033056;28;20056;-74
2023/01/16 15:34:02;;;;;;;17.35;5.88;;;14.30;99.90;;;;;;5021295;28;20044;-74
2023/01/16 15:37:19;;;;;;;14.05;4.72;;;14.00;99.90;;;;;;5054629;28;20044;-74
2023/01/16 15:40:29;;;;;;;30.25;15.02;;;14.10;99.90;;;;;;5053068;28;20052;-75
2023/01/16 15:47:07;;;;;;;16.73;5.53;;;;;;;;;;5055527;28;20064;-75
2023/01/16 15:50:49;;;;;;;16.75;6.20;;;14.10;99.90;;;;;;5054683;28;20495;-74
2023/01/16 15:53:56;;;;;;;15.15;5.88;;;15.60;99.90;;;;;;5048882;28;20507;-75
2023/01/16 15:57:02;;;;;;;15.85;6.90;;;14.00;99.90;;;;;;5054534;28;20452;-74
2023/01/16 16:00:33;;;;;;;13.40;5.45;;;14.00;99.90;;;;;;5053474;28;20063;-70
2023/01/16 16:03:46;;;;;;;22.05;8.23;;;13.90;99.90;;;;;;5052800;28;20040;-69
2023/01/16 16:06:52;;;;;;;23.30;8.40;;;13.90;99.90;;;;;;5053602;28;20385;-71
2023/01/16 16:10:01;;;;;;;19.20;8.43;;;13.90;99.90;;;;;;5052608;28;20056;-71
2023/01/16 16:13:07;;;;;;;18.67;8.40;;;13.80;99.90;;;;;;5053764;28;20063;-71
2023/01/16 16:19:45;;;;;;;18.92;6.57;;;13.80;99.90;;;;;;5052627;28;20063;-70
2023/01/16 16:22:49;;;;;;;22.48;7.15;;;13.90;99.90;;;;;;5052765;28;20501;-71
2023/01/16 16:26:00;;;;;;;19.42;7.53;;;13.90;99.90;;;;;;5052379;28;20044;-70
2023/01/16 16:29:04;;;;;;;17.65;7.65;;;13.90;99.90;;;;;;5051406;28;20052;-72
2023/01/16 16:32:14;;;;;;;20.50;7.75;;;13.90;99.90;;;;;;5052263;28;20051;-70
2023/01/16 16:35:35;;;;;;;19.80;8.05;;;13.90;99.90;;;;;;5052219;28;20044;-72
2023/01/16 16:38:39;;;;;;;18.73;7.80;;;13.90;99.90;;;;;;5051074;28;20229;-72
2023/01/16 16:45:15;;;;;;;23.05;5.88;;;13.90;99.90;;;;;;5051660;28;20051;-73
2023/01/16 16:48:31;;;;;;;30.00;8.32;;;13.90;99.90;;;;;;5051739;28;20056;-72
2023/01/16 16:51:39;;;;;;;33.97;10.07;;;13.40;99.90;;;;;;5051899;28;20044;-72
2023/01/16 16:54:52;;;;;;;38.95;14.30;;;13.90;99.90;;;;;;5050975;28;20048;-70
2023/01/16 16:58:14;;;;;;;33.77;10.30;;;13.90;99.90;;;;;;5051548;28;20052;-72
2023/01/16 17:01:21;;;;;;;27.35;6.20;;;13.80;99.90;;;;;;5052057;28;20056;-70
2023/01/16 17:04:25;;;;;;;15.90;6.25;;;13.40;99.90;;;;;;5051976;28;20385;-71
2023/01/16 17:07:29;;;;;;;23.27;7.25;;;13.80;99.90;;;;;;5052056;28;20389;-71
2023/01/16 17:10:33;;;;;;;20.42;7.68;;;13.90;99.90;;;;;;5051569;28;20048;-71
2023/01/16 17:13:37;;;;;;;22.55;7.88;;;13.90;99.90;;;;;;5052175;28;20052;-72
2023/01/16 17:16:41;;;;;;;24.30;8.40;;;13.90;99.90;;;;;;5051834;28;20064;-73
2023/01/16 17:19:46;;;;;;;20.60;6.72;;;13.90;99.90;;;;;;5050808;28;20063;-72
2023/01/16 17:22:50;;;;;;;23.27;5.60;;;13.90;99.90;;;;;;5051862;28;20048;-72
2023/01/16 17:25:53;;;;;;;29.13;7.20;;;13.90;99.90;;;;;;5051641;28;20392;-72
2023/01/16 17:28:58;;;;;;;13.73;5.70;;;13.90;99.90;;;;;;5051781;28;20036;-72
2023/01/16 17:32:05;;;;;;;31.80;6.40;;;13.90;99.90;;;;;;5040185;28;20056;-72
2023/01/16 17:35:16;;;;;;;18.30;5.53;;;13.90;99.90;;;;;;5051494;28;20535;-72
2023/01/16 17:38:21;;;;;;;13.75;4.57;;;13.80;99.90;;;;;;5051945;28;20047;-73
2023/01/16 17:48:12;;;;;;;40.08;12.10;;;11.60;99.90;;;;;;5051161;28;20052;-73
2023/01/16 17:51:23;;;;;;;42.10;12.20;;;13.80;99.90;;;;;;5052029;28;20060;-72
2023/01/16 17:57:50;;;;;;;41.17;14.93;;;15.10;99.90;;;;;;5050243;28;20048;-72
2023/01/16 18:01:03;;;;;;;30.80;14.07;;;13.80;99.90;;;;;;5050925;28;20048;-71
2023/01/16 18:04:08;;;;;;;35.38;12.55;;;13.70;99.90;;;;;;5051393;28;20365;-74
2023/01/16 18:07:14;;;;;;;38.33;18.40;;;;;;;;;;5050753;28;20048;-74
2023/01/16 18:10:18;;;;;;;76.68;40.33;;;13.60;99.90;;;;;;5050559;28;20044;-72
2023/01/16 18:20:08;;;;;;;29.98;11.38;;;13.60;99.90;;;;;;5054917;28;20051;-71
2023/01/16 18:23:12;;;;;;;25.80;9.25;;;13.60;99.90;;;;;;5052764;28;20044;-73
2023/01/16 18:26:16;;;;;;;20.05;8.07;;;13.50;99.90;;;;;;5055202;28;20511;-72
2023/01/16 18:29:20;;;;;;;25.23;8.95;;;13.50;99.90;;;;;;5054179;28;20052;-73
2023/01/16 18:32:26;;;;;;;25.00;9.30;;;13.60;99.90;;;;;;5054514;28;20048;-73
2023/01/16 18:35:30;;;;;;;23.25;10.35;;;13.40;99.90;;;;;;5055549;28;20044;-73